Time;durP1;ratioP1;P1;durP2;ratioP2;P2;SDS_P1;SDS_P2;PMS_P1;PMS_P2;Temp;Humidity;BMP_temperature;BMP_pressure;BME280_temperature;BME280_humidity;BME280_pressure;Samples;Min_cycle;Max_cycle;Signal;HPM_P1;HPM_P2
2022/08/01 00:01:03;;;;;;;9.02;6.00;;;19.30;99.90;;;;;;5032438;28;20108;-65
2022/08/01 00:03:29;;;;;;;7.80;4.90;;;19.20;99.90;;;;;;5032579;28;20172;-65
2022/08/01 00:05:54;;;;;;;8.38;5.18;;;19.30;99.90;;;;;;5034498;28;20049;-65
2022/08/01 00:08:20;;;;;;;7.32;5.15;;;19.30;99.90;;;;;;5033792;28;20041;-65
2022/08/01 00:10:45;;;;;;;7.43;5.22;;;19.30;99.90;;;;;;5034488;28;20443;-65
2022/08/01 00:13:11;;;;;;;8.25;5.32;;;19.30;99.90;;;;;;5032256;28;20600;-65
2022/08/01 00:15:37;;;;;;;8.38;5.20;;;19.20;99.90;;;;;;5029027;28;20124;-65
2022/08/01 00:18:02;;;;;;;7.30;5.10;;;19.20;99.90;;;;;;5034519;28;20037;-65
2022/08/01 00:20:28;;;;;;;8.07;4.45;;;19.20;99.90;;;;;;5034815;28;20037;-65
2022/08/01 00:22:53;;;;;;;6.82;4.93;;;19.20;99.90;;;;;;5031884;28;20082;-66
2022/08/01 00:25:19;;;;;;;7.10;4.47;;;19.20;99.90;;;;;;5030771;28;20366;-65
2022/08/01 00:27:44;;;;;;;6.07;3.60;;;19.10;99.90;;;;;;5032038;28;20124;-65
2022/08/01 00:30:10;;;;;;;5.32;3.53;;;19.20;99.90;;;;;;5035982;28;20214;-65
2022/08/01 00:32:36;;;;;;;6.28;3.60;;;19.10;99.90;;;;;;5037267;28;20117;-65
2022/08/01 00:35:01;;;;;;;6.03;3.55;;;19.10;99.90;;;;;;5033852;28;20109;-65
2022/08/01 00:37:27;;;;;;;6.85;3.45;;;19.10;99.90;;;;;;5037436;28;20045;-65
2022/08/01 00:39:52;;;;;;;6.35;3.33;;;19.10;99.90;;;;;;5033675;28;20040;-65
2022/08/01 00:42:18;;;;;;;7.65;3.47;;;19.10;99.90;;;;;;5040795;28;20043;-66
2022/08/01 00:44:44;;;;;;;6.45;3.38;;;19.10;99.90;;;;;;5037494;28;20469;-65
2022/08/01 00:47:09;;;;;;;5.35;3.60;;;19.10;99.90;;;;;;5032810;28;20053;-65
2022/08/01 00:49:35;;;;;;;4.65;3.15;;;19.10;99.90;;;;;;5035127;28;20064;-65
2022/08/01 00:52:02;;;;;;;8.93;4.05;;;19.10;99.90;;;;;;5032887;28;20154;-65
2022/08/01 00:54:27;;;;;;;5.45;3.58;;;19.10;99.90;;;;;;5032055;28;20057;-66
2022/08/01 00:56:54;;;;;;;8.23;4.53;;;19.10;99.90;;;;;;5031949;28;20048;-65
2022/08/01 00:59:22;;;;;;;5.82;4.03;;;19.10;99.90;;;;;;5036545;28;20037;-65
2022/08/01 01:01:48;;;;;;;6.80;3.88;;;19.10;99.90;;;;;;5034184;28;20037;-66
2022/08/01 01:04:14;;;;;;;6.30;3.80;;;19.10;99.90;;;;;;5034854;28;20161;-65
2022/08/01 01:06:50;;;;;;;7.20;4.50;;;19.10;99.90;;;;;;5032026;28;20037;-66
2022/08/01 01:09:37;;;;;;;5.55;3.90;;;19.10;99.90;;;;;;5029721;28;20033;-65
2022/08/01 01:12:33;;;;;;;6.55;3.92;;;19.10;99.90;;;;;;5030792;28;20041;-66
2022/08/01 01:15:39;;;;;;;6.20;3.83;;;19.10;99.90;;;;;;5033646;28;20437;-65
2022/08/01 01:18:14;;;;;;;6.10;3.83;;;19.10;99.90;;;;;;5010056;28;20112;-66
2022/08/01 01:20:44;;;;;;;6.38;4.28;;;19.10;99.90;;;;;;5034023;28;20400;-66
2022/08/01 01:23:55;;;;;;;7.43;4.35;;;19.10;99.90;;;;;;5034236;28;20116;-65
2022/08/01 01:27:06;;;;;;;10.48;4.65;;;19.10;99.90;;;;;;5030355;28;20049;-65
2022/08/01 01:29:38;;;;;;;6.10;4.13;;;19.00;99.90;;;;;;5017446;28;20582;-65
2022/08/01 01:32:16;;;;;;;6.93;3.90;;;19.00;99.90;;;;;;5013601;28;20350;-66
2022/08/01 01:34:44;;;;;;;8.85;4.47;;;19.10;99.90;;;;;;5025868;28;20622;-65
2022/08/01 01:37:18;;;;;;;9.05;4.18;;;19.10;99.90;;;;;;5030954;28;20387;-65
2022/08/01 01:39:46;;;;;;;5.80;3.85;;;19.10;99.90;;;;;;5035569;28;20057;-66
2022/08/01 01:42:14;;;;;;;6.85;3.80;;;19.10;99.90;;;;;;5032108;28;20068;-66
2022/08/01 01:44:41;;;;;;;6.88;4.30;;;19.10;99.90;;;;;;5037325;28;22030;-65
2022/08/01 01:47:07;;;;;;;6.47;3.58;;;19.00;99.90;;;;;;5031499;28;20452;-65
2022/08/01 01:49:34;;;;;;;7.00;4.30;;;19.10;99.90;;;;;;5033544;28;20593;-66
2022/08/01 01:52:01;;;;;;;6.63;3.70;;;19.00;99.90;;;;;;5030127;28;20049;-65
2022/08/01 01:54:34;;;;;;;5.68;3.75;;;19.10;99.90;;;;;;5033461;28;20164;-65
2022/08/01 01:57:03;;;;;;;8.13;4.05;;;19.10;99.90;;;;;;5039086;28;20091;-65
2022/08/01 01:59:32;;;;;;;7.13;4.07;;;19.00;99.90;;;;;;5033531;28;20044;-65
2022/08/01 02:02:02;;;;;;;7.80;4.13;;;19.10;99.90;;;;;;5033281;28;21769;-65
2022/08/01 02:04:28;;;;;;;6.72;4.13;;;19.10;99.90;;;;;;5034650;28;20372;-65
2022/08/01 02:06:55;;;;;;;5.38;4.00;;;19.00;99.90;;;;;;5032603;28;20045;-65
2022/08/01 02:09:22;;;;;;;6.18;4.03;;;19.10;99.90;;;;;;5032543;28;20368;-65
2022/08/01 02:11:49;;;;;;;6.40;3.90;;;19.00;99.90;;;;;;5032644;28;20477;-65
2022/08/01 02:14:17;;;;;;;6.55;4.30;;;19.00;99.90;;;;;;5029793;28;20120;-65
2022/08/01 02:16:47;;;;;;;6.45;3.65;;;19.10;99.90;;;;;;5031865;28;20053;-65
2022/08/01 02:19:13;;;;;;;6.05;3.88;;;19.00;99.90;;;;;;5024763;28;20169;-65
2022/08/01 02:22:00;;;;;;;5.45;3.22;;;19.00;99.90;;;;;;5025374;28;20495;-65
2022/08/01 02:24:54;;;;;;;7.35;3.70;;;18.90;99.90;;;;;;5030058;28;20483;-65
2022/08/01 02:27:53;;;;;;;4.43;2.92;;;18.90;99.90;;;;;;5034658;28;20056;-65
2022/08/01 02:30:19;;;;;;;8.88;3.60;;;18.90;99.90;;;;;;5031029;28;20102;-65
2022/08/01 02:32:57;;;;;;;5.72;3.10;;;18.80;99.90;;;;;;5030726;28;20064;-65
2022/08/01 02:35:29;;;;;;;5.88;3.08;;;18.80;99.90;;;;;;5033972;28;20437;-65
2022/08/01 02:37:57;;;;;;;6.97;2.88;;;18.80;99.90;;;;;;5031506;28;20087;-65
2022/08/01 02:40:26;;;;;;;4.53;2.72;;;18.80;99.90;;;;;;5033813;28;20055;-65
2022/08/01 02:42:54;;;;;;;10.25;3.28;;;18.80;99.90;;;;;;5030433;28;20059;-65
2022/08/01 02:45:24;;;;;;;5.70;2.72;;;18.80;99.90;;;;;;5034535;28;20059;-65
2022/08/01 02:47:51;;;;;;;5.40;2.65;;;18.80;99.90;;;;;;5047672;28;20120;-65
2022/08/01 02:50:18;;;;;;;6.00;2.85;;;18.70;99.90;;;;;;5033541;28;20124;-65
2022/08/01 02:52:48;;;;;;;5.97;3.20;;;18.70;99.90;;;;;;5032505;28;20460;-65
2022/08/01 02:55:15;;;;;;;6.22;3.20;;;18.70;99.90;;;;;;5031864;28;20064;-65
2022/08/01 02:57:43;;;;;;;6.60;3.78;;;18.80;99.90;;;;;;5032769;28;20135;-66
2022/08/01 03:00:10;;;;;;;5.38;3.08;;;18.80;99.90;;;;;;5030075;28;20053;-65
2022/08/01 03:02:37;;;;;;;4.32;2.95;;;18.70;99.90;;;;;;5033638;28;20114;-65
2022/08/01 03:05:03;;;;;;;4.40;3.05;;;18.80;99.90;;;;;;5033176;28;20483;-65
2022/08/01 03:07:29;;;;;;;4.35;2.80;;;18.80;99.90;;;;;;5032199;28;20033;-65
2022/08/01 03:09:57;;;;;;;4.82;3.30;;;18.80;99.90;;;;;;5024866;28;20034;-65
2022/08/01 03:12:26;;;;;;;4.90;2.92;;;18.80;99.90;;;;;;5025524;28;20056;-65
2022/08/01 03:14:54;;;;;;;9.20;4.25;;;18.80;99.90;;;;;;5023965;28;20108;-65
2022/08/01 03:17:22;;;;;;;7.30;3.60;;;18.80;99.90;;;;;;5022676;28;20087;-65
2022/08/01 03:19:49;;;;;;;8.07;4.50;;;18.70;99.90;;;;;;5029985;28;20084;-65
2022/08/01 03:22:16;;;;;;;6.72;3.35;;;18.70;99.90;;;;;;5027840;28;20147;-65
2022/08/01 03:24:43;;;;;;;6.45;3.45;;;18.60;99.90;;;;;;5027592;28;20432;-66
2022/08/01 03:27:11;;;;;;;6.60;4.10;;;18.60;99.90;;;;;;5025009;28;20044;-65
2022/08/01 03:29:38;;;;;;;6.90;3.45;;;18.60;99.90;;;;;;5026020;28;20106;-65
2022/08/01 03:32:06;;;;;;;6.00;3.53;;;18.60;99.90;;;;;;5028736;28;20052;-65
2022/08/01 03:34:31;;;;;;;6.25;3.70;;;18.60;99.90;;;;;;5028472;28;20151;-65
2022/08/01 03:37:09;;;;;;;7.07;3.60;;;18.60;99.90;;;;;;5027470;28;20159;-65
2022/08/01 03:39:49;;;;;;;6.38;3.90;;;18.60;99.90;;;;;;5028791;28;20045;-65
2022/08/01 03:42:20;;;;;;;6.65;3.85;;;18.60;99.90;;;;;;5027729;28;20590;-65
2022/08/01 03:45:09;;;;;;;5.95;2.97;;;18.60;99.90;;;;;;5028003;28;20132;-65
2022/08/01 03:47:35;;;;;;;5.35;2.90;;;18.60;99.90;;;;;;5029177;28;20156;-65
2022/08/01 03:50:03;;;;;;;5.40;2.85;;;18.50;99.90;;;;;;5025804;28;20037;-65
2022/08/01 03:52:30;;;;;;;7.78;2.35;;;18.50;99.90;;;;;;5028964;28;20049;-65
2022/08/01 03:54:58;;;;;;;4.35;2.13;;;18.50;99.90;;;;;;5029344;28;20208;-65
2022/08/01 03:57:28;;;;;;;5.40;2.10;;;18.50;99.90;;;;;;5029435;28;20049;-65
2022/08/01 03:59:54;;;;;;;4.82;2.30;;;18.40;99.90;;;;;;5028484;28;20064;-65
2022/08/01 04:02:22;;;;;;;5.38;1.70;;;18.40;99.90;;;;;;5027682;28;20469;-65
2022/08/01 04:04:47;;;;;;;7.43;2.40;;;18.40;99.90;;;;;;5025895;28;20064;-65
2022/08/01 04:07:30;;;;;;;6.63;2.00;;;18.40;99.90;;;;;;5028504;28;20477;-65
2022/08/01 04:09:56;;;;;;;5.82;1.98;;;18.40;99.90;;;;;;5027714;28;20038;-65
2022/08/01 04:12:22;;;;;;;6.45;2.17;;;18.40;99.90;;;;;;5033353;28;20123;-65
2022/08/01 04:14:48;;;;;;;6.13;1.90;;;18.40;99.90;;;;;;5028574;28;20057;-65
2022/08/01 04:17:17;;;;;;;5.00;1.80;;;18.40;99.90;;;;;;5031502;28;20037;-65
2022/08/01 04:19:45;;;;;;;6.32;2.38;;;18.40;99.90;;;;;;5032891;28;20553;-65
2022/08/01 04:22:13;;;;;;;8.40;2.83;;;18.40;99.90;;;;;;5028967;28;20113;-65
2022/08/01 04:24:40;;;;;;;5.18;2.50;;;18.40;99.90;;;;;;5029612;28;20051;-65
2022/08/01 04:27:17;;;;;;;8.98;3.05;;;18.40;99.90;;;;;;5031246;28;21822;-65
2022/08/01 04:29:44;;;;;;;5.93;2.72;;;18.50;99.90;;;;;;5034780;28;20049;-65
2022/08/01 04:32:12;;;;;;;6.90;3.55;;;18.50;99.90;;;;;;5029268;28;20052;-65
2022/08/01 04:34:41;;;;;;;6.45;2.65;;;18.50;99.90;;;;;;5027759;28;20415;-65
2022/08/01 04:37:10;;;;;;;4.65;2.13;;;18.40;99.90;;;;;;5027103;28;20634;-65
2022/08/01 04:39:38;;;;;;;5.60;1.90;;;18.50;99.90;;;;;;5028328;28;20081;-66
2022/08/01 04:42:05;;;;;;;6.85;2.00;;;18.50;99.90;;;;;;5032875;28;20037;-65
2022/08/01 04:44:32;;;;;;;5.32;2.30;;;18.50;99.90;;;;;;5034279;28;20051;-65
2022/08/01 04:47:01;;;;;;;6.10;2.20;;;18.50;99.90;;;;;;5048300;28;20416;-65
2022/08/01 04:49:27;;;;;;;7.00;2.50;;;18.50;99.90;;;;;;5033272;28;20517;-65
2022/08/01 04:51:57;;;;;;;7.85;2.15;;;18.50;99.90;;;;;;5039122;28;20098;-65
2022/08/01 04:54:37;;;;;;;6.18;2.28;;;18.50;99.90;;;;;;5037232;28;20473;-66
2022/08/01 04:57:06;;;;;;;6.78;2.28;;;18.50;99.90;;;;;;5037290;28;20464;-65
2022/08/01 04:59:41;;;;;;;5.65;2.22;;;18.50;99.90;;;;;;5035572;28;20037;-65
2022/08/01 05:02:16;;;;;;;8.00;2.40;;;18.50;99.90;;;;;;5043464;28;20099;-66
2022/08/01 05:04:44;;;;;;;8.75;2.30;;;18.50;99.90;;;;;;5038863;28;20065;-65
2022/08/01 05:07:10;;;;;;;9.60;2.80;;;18.50;99.90;;;;;;5030799;28;20041;-65
2022/08/01 05:09:36;;;;;;;9.02;2.80;;;18.50;99.90;;;;;;5033443;28;20033;-65
2022/08/01 05:12:05;;;;;;;5.65;2.65;;;18.50;99.90;;;;;;5042600;28;20041;-65
2022/08/01 05:14:31;;;;;;;7.68;2.90;;;18.50;99.90;;;;;;5031663;28;20487;-66
2022/08/01 05:16:59;;;;;;;8.27;2.70;;;18.40;99.90;;;;;;5040239;28;20471;-66
2022/08/01 05:19:25;;;;;;;8.88;3.08;;;18.40;99.90;;;;;;5039063;28;20045;-66
2022/08/01 05:21:50;;;;;;;9.82;2.80;;;18.40;99.90;;;;;;5036896;28;20044;-66
2022/08/01 05:24:16;;;;;;;6.75;2.95;;;18.40;99.90;;;;;;5037638;28;20401;-66
2022/08/01 05:26:42;;;;;;;10.15;3.13;;;18.40;99.90;;;;;;5036695;28;20545;-66
2022/08/01 05:29:07;;;;;;;11.50;3.05;;;18.40;99.90;;;;;;5040533;28;20143;-67
2022/08/01 05:31:36;;;;;;;12.32;2.83;;;18.40;99.90;;;;;;5039065;28;20045;-65
2022/08/01 05:34:02;;;;;;;10.13;3.17;;;18.50;99.90;;;;;;5040151;28;20585;-63
2022/08/01 05:36:28;;;;;;;12.40;3.13;;;18.50;99.90;;;;;;5034400;28;20100;-63
2022/08/01 05:38:53;;;;;;;9.85;3.55;;;18.50;99.90;;;;;;5035454;28;20159;-63
2022/08/01 05:41:19;;;;;;;10.55;3.20;;;18.50;99.90;;;;;;5036393;28;20106;-63
2022/08/01 05:43:45;;;;;;;11.48;3.25;;;18.50;99.90;;;;;;5032992;28;20072;-63
2022/08/01 05:46:10;;;;;;;11.80;2.70;;;18.40;99.90;;;;;;5038853;28;20037;-63
2022/08/01 05:48:36;;;;;;;10.02;2.92;;;18.40;99.90;;;;;;5038146;28;20052;-64
2022/08/01 05:51:02;;;;;;;11.30;3.53;;;18.40;99.90;;;;;;5036492;28;20037;-65
2022/08/01 05:53:28;;;;;;;11.98;3.22;;;18.40;99.90;;;;;;5030872;28;20490;-64
2022/08/01 05:55:54;;;;;;;15.45;3.03;;;18.40;99.90;;;;;;5037938;28;20053;-63
2022/08/01 05:58:19;;;;;;;14.80;3.83;;;18.40;99.90;;;;;;5030534;28;20387;-63
2022/08/01 06:00:45;;;;;;;10.25;3.42;;;18.50;99.90;;;;;;5031262;28;20420;-63
2022/08/01 06:03:11;;;;;;;10.15;3.13;;;18.50;99.90;;;;;;5034784;28;20049;-63
2022/08/01 06:05:37;;;;;;;13.55;3.33;;;18.50;99.90;;;;;;5032896;28;20049;-63
2022/08/01 06:08:03;;;;;;;16.38;3.20;;;18.60;99.90;;;;;;5032503;28;20041;-63
2022/08/01 06:10:29;;;;;;;14.32;3.13;;;18.60;99.90;;;;;;5033362;28;20072;-63
2022/08/01 06:12:55;;;;;;;10.98;3.08;;;18.60;99.90;;;;;;5027282;28;20132;-63
2022/08/01 06:15:20;;;;;;;17.02;3.70;;;18.70;99.90;;;;;;5035109;28;20507;-64
2022/08/01 06:17:46;;;;;;;14.77;3.53;;;18.60;99.90;;;;;;5041526;28;20040;-63
2022/08/01 06:20:11;;;;;;;16.67;3.63;;;18.60;99.90;;;;;;5037250;28;20075;-63
2022/08/01 06:22:37;;;;;;;13.75;3.20;;;18.50;99.90;;;;;;5044880;28;20053;-63
2022/08/01 06:25:03;;;;;;;15.32;3.22;;;18.50;99.90;;;;;;5044458;28;20103;-63
2022/08/01 06:27:29;;;;;;;15.38;3.30;;;18.50;99.90;;;;;;5045125;28;20056;-63
2022/08/01 06:29:54;;;;;;;15.13;3.47;;;18.50;99.90;;;;;;5039756;28;20194;-63
2022/08/01 06:32:22;;;;;;;12.27;3.00;;;18.60;99.90;;;;;;5046246;28;20037;-63
2022/08/01 06:34:48;;;;;;;13.38;3.13;;;18.60;99.90;;;;;;5044868;28;20076;-63
2022/08/01 06:37:14;;;;;;;9.52;2.70;;;18.60;99.90;;;;;;5038978;28;20079;-63
2022/08/01 06:39:40;;;;;;;16.38;3.05;;;18.60;99.90;;;;;;5040798;28;20080;-63
2022/08/01 06:42:05;;;;;;;15.45;3.47;;;18.60;99.90;;;;;;5044992;28;20112;-64
2022/08/01 06:44:31;;;;;;;14.23;3.00;;;18.60;99.90;;;;;;5039848;28;20421;-63
2022/08/01 06:46:58;;;;;;;12.75;3.03;;;18.70;99.90;;;;;;5047036;28;20116;-63
2022/08/01 06:49:24;;;;;;;14.20;2.90;;;18.70;99.90;;;;;;5040834;28;20069;-63
2022/08/01 06:51:50;;;;;;;13.27;3.05;;;18.70;99.90;;;;;;5039163;28;20041;-63
2022/08/01 06:54:16;;;;;;;10.40;2.95;;;18.80;99.90;;;;;;5038783;28;20041;-63
2022/08/01 06:56:42;;;;;;;15.10;2.80;;;18.80;99.90;;;;;;5046692;28;20453;-63
2022/08/01 06:59:07;;;;;;;13.00;2.63;;;18.70;99.90;;;;;;5038775;28;20049;-63
2022/08/01 07:01:33;;;;;;;11.38;2.85;;;18.80;99.90;;;;;;5033986;28;20106;-63
2022/08/01 07:03:59;;;;;;;12.13;3.08;;;18.80;99.90;;;;;;5031231;28;20085;-63
2022/08/01 07:06:25;;;;;;;14.32;2.65;;;18.90;99.90;;;;;;5043492;28;20045;-63
2022/08/01 07:08:52;;;;;;;11.80;2.80;;;19.00;99.90;;;;;;5040924;28;20037;-63
2022/08/01 07:11:18;;;;;;;12.73;2.92;;;19.00;99.90;;;;;;5039105;28;20044;-64
2022/08/01 07:13:45;;;;;;;14.63;3.00;;;19.10;99.90;;;;;;5042997;28;20049;-63
2022/08/01 07:16:11;;;;;;;14.35;3.22;;;19.20;99.90;;;;;;5041057;28;20498;-63
2022/08/01 07:18:37;;;;;;;11.63;3.05;;;19.20;99.90;;;;;;5038247;28;20167;-63
2022/08/01 07:21:02;;;;;;;12.43;2.80;;;19.40;99.90;;;;;;5042847;28;20124;-64
2022/08/01 07:23:28;;;;;;;12.68;2.65;;;19.50;99.90;;;;;;5038167;28;20033;-63
2022/08/01 07:25:54;;;;;;;15.23;3.05;;;19.60;99.90;;;;;;5041262;28;20045;-63
2022/08/01 07:28:19;;;;;;;17.23;3.72;;;19.70;99.90;;;;;;5043216;28;20132;-63
2022/08/01 07:30:45;;;;;;;10.82;2.45;;;19.80;99.90;;;;;;5037550;28;20045;-63
2022/08/01 07:33:10;;;;;;;13.30;2.70;;;19.90;99.90;;;;;;5042698;28;20091;-63
2022/08/01 07:35:39;;;;;;;14.48;3.03;;;20.00;99.90;;;;;;5048034;28;20556;-63
2022/08/01 07:38:06;;;;;;;13.55;3.15;;;20.00;99.90;;;;;;5052727;28;20219;-63
2022/08/01 07:40:31;;;;;;;14.63;2.90;;;20.10;99.90;;;;;;5038248;28;20033;-64
2022/08/01 07:42:57;;;;;;;10.15;2.90;;;20.20;99.90;;;;;;5040886;28;20044;-64
2022/08/01 07:45:24;;;;;;;13.25;2.70;;;20.10;99.90;;;;;;5043343;28;20049;-63
2022/08/01 07:47:49;;;;;;;14.32;3.10;;;20.10;99.90;;;;;;5038768;28;20464;-63
2022/08/01 07:50:16;;;;;;;9.55;2.88;;;20.20;99.90;;;;;;5043449;28;20089;-63
2022/08/01 07:52:42;;;;;;;9.65;2.33;;;20.40;99.90;;;;;;5048300;28;20074;-63
2022/08/01 07:55:09;;;;;;;10.00;2.40;;;20.50;99.90;;;;;;5037817;28;20360;-63
2022/08/01 07:57:34;;;;;;;14.15;2.80;;;20.70;99.90;;;;;;5044102;28;20386;-63
2022/08/01 08:00:01;;;;;;;14.05;3.00;;;21.00;99.90;;;;;;5042735;28;20111;-63
2022/08/01 08:02:26;;;;;;;14.80;2.92;;;21.10;99.90;;;;;;5041750;28;20045;-63
2022/08/01 08:04:52;;;;;;;12.13;2.72;;;21.20;99.90;;;;;;5041223;28;20053;-64
2022/08/01 08:07:18;;;;;;;11.20;2.55;;;21.20;99.90;;;;;;5042585;28;20115;-63
2022/08/01 08:09:43;;;;;;;9.70;2.40;;;21.30;99.90;;;;;;5043901;28;20041;-63
2022/08/01 08:12:09;;;;;;;12.98;2.60;;;21.20;99.90;;;;;;5037602;28;20037;-64
2022/08/01 08:14:35;;;;;;;9.80;2.38;;;21.30;99.90;;;;;;5043649;28;20049;-64
2022/08/01 08:17:00;;;;;;;17.13;3.20;;;21.30;99.90;;;;;;5048357;28;20037;-63
2022/08/01 08:19:26;;;;;;;10.80;2.30;;;21.00;99.90;;;;;;5049285;28;20045;-64
2022/08/01 08:21:51;;;;;;;10.80;2.22;;;21.10;99.90;;;;;;5046750;28;20045;-63
2022/08/01 08:24:20;;;;;;;11.98;2.60;;;21.20;99.90;;;;;;5042417;28;20060;-63
2022/08/01 08:26:51;;;;;;;10.73;3.00;;;21.20;99.90;;;;;;5040811;28;20117;-63
2022/08/01 08:29:16;;;;;;;9.95;2.28;;;21.30;99.90;;;;;;5046860;28;20039;-64
2022/08/01 08:31:42;;;;;;;8.15;2.00;;;21.30;99.90;;;;;;5036663;28;20029;-63
2022/08/01 08:34:08;;;;;;;12.85;2.88;;;21.20;99.90;;;;;;5033566;28;20105;-64
2022/08/01 08:36:34;;;;;;;13.02;2.40;;;21.40;99.90;;;;;;5040763;28;20045;-63
2022/08/01 08:39:00;;;;;;;8.23;2.17;;;21.40;99.90;;;;;;5030620;28;20037;-63
2022/08/01 08:41:25;;;;;;;14.50;3.38;;;21.60;99.90;;;;;;5044848;28;20103;-63
2022/08/01 08:43:52;;;;;;;13.82;2.78;;;21.80;99.90;;;;;;5039320;28;20053;-63
2022/08/01 08:46:19;;;;;;;10.05;2.70;;;21.80;99.90;;;;;;5036931;28;20065;-64
2022/08/01 08:48:45;;;;;;;10.93;2.22;;;21.80;99.90;;;;;;5040701;28;20083;-63
2022/08/01 08:51:11;;;;;;;11.35;2.55;;;21.90;99.90;;;;;;5041226;28;20061;-63
2022/08/01 08:53:43;;;;;;;10.25;2.58;;;22.00;99.90;;;;;;5040446;28;20124;-63
2022/08/01 08:56:09;;;;;;;12.45;2.33;;;21.90;99.90;;;;;;5035662;28;20103;-64
2022/08/01 08:58:37;;;;;;;11.50;2.63;;;21.70;99.90;;;;;;5043678;28;20043;-63
2022/08/01 09:01:06;;;;;;;11.77;2.90;;;21.70;99.90;;;;;;5039265;28;20041;-67
2022/08/01 09:03:33;;;;;;;12.75;2.72;;;21.70;99.90;;;;;;5038042;28;20052;-65
2022/08/01 09:05:58;;;;;;;12.40;3.10;;;21.70;99.90;;;;;;5037013;28;20051;-65
2022/08/01 09:08:24;;;;;;;11.35;2.42;;;21.80;99.90;;;;;;5043707;28;20044;-64
2022/08/01 09:10:49;;;;;;;11.63;2.42;;;21.80;99.90;;;;;;5040236;28;20087;-65
2022/08/01 09:13:15;;;;;;;11.73;2.60;;;22.00;99.90;;;;;;5040763;28;20071;-64
2022/08/01 09:15:43;;;;;;;9.63;2.00;;;22.00;99.90;;;;;;5036701;28;20444;-66
2022/08/01 09:18:24;;;;;;;11.32;2.60;;;22.20;99.90;;;;;;5041315;28;20080;-65
2022/08/01 09:20:50;;;;;;;12.43;2.50;;;22.50;99.90;;;;;;5033548;28;20037;-65
2022/08/01 09:23:39;;;;;;;12.18;2.25;;;22.60;99.90;;;;;;5050812;28;20440;-66
2022/08/01 09:26:12;;;;;;;9.88;2.50;;;22.80;99.90;;;;;;5033873;28;20025;-66
2022/08/01 09:28:38;;;;;;;8.32;2.20;;;22.90;99.90;;;;;;5036069;28;20506;-66
2022/08/01 09:31:16;;;;;;;10.55;2.35;;;23.00;99.90;;;;;;5050205;28;20068;-66
2022/08/01 09:34:00;;;;;;;11.65;3.05;;;23.00;99.90;;;;;;5037672;28;20045;-66
2022/08/01 09:36:42;;;;;;;11.75;2.30;;;23.00;99.90;;;;;;5044219;28;20045;-66
2022/08/01 09:39:13;;;;;;;12.75;2.60;;;23.00;99.90;;;;;;5035735;28;20045;-65
2022/08/01 09:41:39;;;;;;;11.85;2.63;;;22.90;99.90;;;;;;5031213;28;20051;-66
2022/08/01 09:44:05;;;;;;;10.38;2.25;;;22.90;99.90;;;;;;5042351;28;20053;-66
2022/08/01 09:46:31;;;;;;;11.75;2.42;;;23.00;99.90;;;;;;5044910;28;20074;-66
2022/08/01 09:49:05;;;;;;;12.13;2.83;;;23.10;99.90;;;;;;5043941;28;20333;-66
2022/08/01 09:51:36;;;;;;;10.07;2.15;;;23.10;99.90;;;;;;5039448;28;20175;-66
2022/08/01 09:54:06;;;;;;;9.70;2.25;;;22.90;99.90;;;;;;5048084;28;20060;-66
2022/08/01 09:56:42;;;;;;;8.23;1.77;;;23.00;99.90;;;;;;5036491;28;20544;-66
2022/08/01 09:59:07;;;;;;;8.02;1.83;;;22.80;99.90;;;;;;5042487;28;20131;-65
2022/08/01 10:01:47;;;;;;;8.32;1.95;;;22.90;99.90;;;;;;5046558;28;20125;-65
2022/08/01 10:04:15;;;;;;;6.65;1.70;;;23.10;99.50;;;;;;5042319;28;20156;-66
2022/08/01 10:06:45;;;;;;;8.07;1.88;;;23.00;99.10;;;;;;5047183;28;20045;-65
2022/08/01 10:09:13;;;;;;;6.75;1.67;;;23.20;99.60;;;;;;5040878;28;20036;-65
2022/08/01 10:11:43;;;;;;;8.68;2.15;;;23.20;99.20;;;;;;5040098;28;20128;-65
2022/08/01 10:14:09;;;;;;;8.50;2.10;;;23.40;98.80;;;;;;5033420;28;20223;-65
2022/08/01 10:16:36;;;;;;;6.80;1.80;;;23.40;98.30;;;;;;5041143;28;20144;-65
2022/08/01 10:19:06;;;;;;;7.60;2.03;;;23.40;98.10;;;;;;5028244;28;20369;-66
2022/08/01 10:21:34;;;;;;;6.95;1.73;;;23.20;98.60;;;;;;5035133;28;20033;-65
2022/08/01 10:24:02;;;;;;;8.60;1.85;;;23.00;98.30;;;;;;5040580;28;20033;-65
2022/08/01 10:26:31;;;;;;;8.05;1.48;;;23.20;98.50;;;;;;5038535;28;20464;-65
2022/08/01 10:28:57;;;;;;;9.35;2.00;;;23.40;98.10;;;;;;5037027;28;20352;-65
2022/08/01 10:31:23;;;;;;;6.82;1.70;;;23.60;97.50;;;;;;5033278;28;20112;-65
2022/08/01 10:33:50;;;;;;;5.25;1.48;;;23.60;97.60;;;;;;5041572;28;20056;-65
2022/08/01 10:36:19;;;;;;;9.07;2.22;;;23.60;96.30;;;;;;5044291;28;20072;-66
2022/08/01 10:38:45;;;;;;;5.82;1.52;;;23.40;94.30;;;;;;5040578;28;20087;-65
2022/08/01 10:41:15;;;;;;;6.60;1.60;;;23.20;95.20;;;;;;5036860;28;20037;-66
2022/08/01 10:43:41;;;;;;;8.63;1.70;;;23.30;95.60;;;;;;5037879;28;20115;-65
2022/08/01 10:46:07;;;;;;;8.45;1.70;;;23.50;95.40;;;;;;5045244;28;20567;-65
2022/08/01 10:48:56;;;;;;;5.68;1.50;;;23.50;95.30;;;;;;5032176;28;20065;-65
2022/08/01 10:51:23;;;;;;;5.25;1.60;;;23.80;95.30;;;;;;5039895;28;20037;-65
2022/08/01 10:53:53;;;;;;;7.65;1.42;;;24.00;95.00;;;;;;5035945;28;20116;-65
2022/08/01 10:56:19;;;;;;;9.45;1.80;;;24.20;94.70;;;;;;5045339;28;20069;-65
2022/08/01 10:58:47;;;;;;;11.80;1.83;;;24.30;94.90;;;;;;5035214;28;20081;-65
2022/08/01 11:01:17;;;;;;;7.15;1.73;;;24.40;94.20;;;;;;5034041;28;20124;-65
2022/08/01 11:04:02;;;;;;;5.78;1.52;;;24.30;93.90;;;;;;5029322;28;20064;-65
2022/08/01 11:06:33;;;;;;;5.03;1.45;;;24.20;93.90;;;;;;5037477;28;20359;-65
2022/08/01 11:09:16;;;;;;;6.82;1.50;;;24.10;92.90;;;;;;5029394;28;20049;-65
2022/08/01 11:12:08;;;;;;;6.90;1.70;;;24.10;92.70;;;;;;5037200;28;20204;-65
2022/08/01 11:14:54;;;;;;;6.45;1.52;;;24.10;92.40;;;;;;5041157;28;20147;-65
2022/08/01 11:17:34;;;;;;;6.78;1.40;;;24.30;92.10;;;;;;5035032;28;20106;-65
2022/08/01 11:20:13;;;;;;;5.47;1.45;;;24.30;91.80;;;;;;5032338;28;20053;-65
2022/08/01 11:23:00;;;;;;;6.95;1.50;;;24.20;91.70;;;;;;5027923;28;20083;-65
2022/08/01 11:25:48;;;;;;;7.35;1.77;;;24.20;91.20;;;;;;5036797;28;20487;-65
2022/08/01 11:28:13;;;;;;;6.88;1.67;;;24.20;91.20;;;;;;5037195;28;20087;-65
2022/08/01 11:30:40;;;;;;;6.35;1.30;;;24.30;91.40;;;;;;5038636;28;20568;-65
2022/08/01 11:33:06;;;;;;;8.07;1.92;;;24.20;91.70;;;;;;5034122;28;20064;-65
2022/08/01 11:35:32;;;;;;;6.65;1.60;;;24.20;91.10;;;;;;5029292;28;20057;-65
2022/08/01 11:38:28;;;;;;;6.13;1.50;;;24.20;91.30;;;;;;5038719;28;20106;-65
2022/08/01 11:41:21;;;;;;;6.35;1.40;;;24.30;91.10;;;;;;5030237;28;20080;-65
2022/08/01 11:44:11;;;;;;;6.18;1.40;;;24.20;90.40;;;;;;5042318;28;20041;-65
2022/08/01 11:47:04;;;;;;;7.57;1.80;;;24.30;91.30;;;;;;5030100;28;20111;-65
2022/08/01 11:49:47;;;;;;;10.30;2.00;;;24.30;90.80;;;;;;5041535;28;20119;-65
2022/08/01 11:52:15;;;;;;;5.40;1.42;;;24.30;90.60;;;;;;5043940;28;20037;-65
2022/08/01 11:54:50;;;;;;;8.05;1.73;;;24.30;90.50;;;;;;5044759;28;20055;-65
2022/08/01 11:57:20;;;;;;;5.90;1.60;;;24.40;90.00;;;;;;5047405;28;20029;-65
2022/08/01 11:59:48;;;;;;;6.78;1.90;;;24.50;89.80;;;;;;5050304;28;20057;-65
2022/08/01 12:02:25;;;;;;;6.38;1.20;;;24.60;88.90;;;;;;5044621;28;20048;-65
2022/08/01 12:04:55;;;;;;;5.28;1.70;;;24.60;88.60;;;;;;5033856;28;20443;-65
2022/08/01 12:07:23;;;;;;;8.23;1.42;;;24.60;89.40;;;;;;5042359;28;20175;-65
2022/08/01 12:09:56;;;;;;;4.80;1.33;;;24.70;90.00;;;;;;5046973;28;20407;-65
2022/08/01 12:12:21;;;;;;;5.07;1.33;;;24.90;89.80;;;;;;5039691;28;20043;-65
2022/08/01 12:14:56;;;;;;;6.03;1.30;;;24.80;88.90;;;;;;5039932;28;20045;-65
2022/08/01 12:17:29;;;;;;;6.65;1.55;;;24.90;88.60;;;;;;5037749;28;20052;-65
2022/08/01 12:19:55;;;;;;;5.57;1.40;;;25.00;87.60;;;;;;5028985;28;20038;-65
2022/08/01 12:22:23;;;;;;;4.68;1.20;;;25.00;85.80;;;;;;5015565;28;20053;-65
2022/08/01 12:24:49;;;;;;;6.90;1.38;;;25.00;85.00;;;;;;5036825;28;20167;-65
2022/08/01 12:27:25;;;;;;;7.40;1.48;;;25.00;85.20;;;;;;5037771;28;20506;-64
2022/08/01 12:29:50;;;;;;;7.68;1.70;;;25.20;85.40;;;;;;5029541;28;20524;-64
2022/08/01 12:32:26;;;;;;;6.05;1.75;;;25.30;84.40;;;;;;5030355;28;20240;-65
2022/08/01 12:34:53;;;;;;;7.30;1.30;;;25.40;83.60;;;;;;5031199;28;20061;-65
2022/08/01 12:37:20;;;;;;;6.40;1.55;;;25.40;83.00;;;;;;5046636;28;20037;-65
2022/08/01 12:39:46;;;;;;;6.97;1.20;;;25.30;83.40;;;;;;5032796;28;20389;-65
2022/08/01 12:42:12;;;;;;;5.45;1.50;;;25.20;83.30;;;;;;5048113;28;20457;-65
2022/08/01 12:44:40;;;;;;;5.75;1.40;;;25.20;82.70;;;;;;5035803;28;20091;-65
2022/08/01 12:47:06;;;;;;;5.38;1.38;;;25.10;82.00;;;;;;5035851;28;20575;-65
2022/08/01 12:49:36;;;;;;;4.63;1.27;;;25.20;82.10;;;;;;5040639;28;20650;-66
2022/08/01 12:52:03;;;;;;;4.15;1.27;;;25.10;81.50;;;;;;5047276;28;20032;-65
2022/08/01 12:54:28;;;;;;;5.13;1.30;;;25.00;80.70;;;;;;5042148;28;20057;-65